Time;durP1;ratioP1;P1;durP2;ratioP2;P2;SDS_P1;SDS_P2;PMS_P1;PMS_P2;Temp;Humidity;BMP_temperature;BMP_pressure;BME280_temperature;BME280_humidity;BME280_pressure;Samples;Min_cycle;Max_cycle;Signal;HPM_P1;HPM_P2
2021/08/29 00:02:02;;;;;;;7.22;3.08;;;19.50;85.30;;;;;;5011359;28;20112;-74
2021/08/29 00:04:30;;;;;;;11.60;3.20;;;19.60;85.40;;;;;;5003530;28;20083;-75
2021/08/29 00:06:56;;;;;;;10.20;2.85;;;19.50;85.20;;;;;;5012084;28;20041;-74
2021/08/29 00:09:21;;;;;;;8.40;2.70;;;19.50;85.30;;;;;;5012664;28;20030;-75
2021/08/29 00:11:47;;;;;;;8.02;2.97;;;19.50;85.40;;;;;;4999456;28;20370;-75
2021/08/29 00:14:12;;;;;;;11.02;3.25;;;19.60;85.40;;;;;;5010859;28;20026;-75
2021/08/29 00:16:38;;;;;;;11.90;3.83;;;19.50;85.50;;;;;;5013238;28;20034;-75
2021/08/29 00:19:04;;;;;;;15.93;3.28;;;19.50;85.50;;;;;;4995045;28;20030;-75
2021/08/29 00:21:29;;;;;;;14.00;3.63;;;19.50;85.60;;;;;;5004733;28;20018;-75
2021/08/29 00:23:55;;;;;;;10.07;3.42;;;19.50;85.60;;;;;;5011372;28;20117;-75
2021/08/29 00:26:21;;;;;;;21.67;5.05;;;19.50;85.60;;;;;;5010588;28;20053;-75
2021/08/29 00:28:47;;;;;;;6.88;2.00;;;19.50;86.30;;;;;;4998561;28;20118;-74
2021/08/29 00:31:13;;;;;;;9.50;2.90;;;19.60;85.80;;;;;;5011234;28;20514;-74
2021/08/29 00:33:39;;;;;;;14.70;2.95;;;19.50;85.80;;;;;;5027210;28;20037;-75
2021/08/29 00:36:04;;;;;;;10.73;2.78;;;19.50;85.90;;;;;;5011103;28;20059;-75
2021/08/29 00:38:30;;;;;;;11.57;3.15;;;19.50;85.90;;;;;;5003008;28;20482;-74
2021/08/29 00:40:56;;;;;;;10.10;3.28;;;19.50;85.90;;;;;;5003316;28;20363;-75
2021/08/29 00:43:22;;;;;;;8.93;3.15;;;19.50;85.80;;;;;;5004680;28;20401;-75
2021/08/29 00:45:52;;;;;;;6.68;2.58;;;19.50;85.80;;;;;;5004312;28;20049;-75
2021/08/29 00:48:19;;;;;;;7.78;3.10;;;19.50;85.80;;;;;;5013174;28;20035;-75
2021/08/29 00:50:46;;;;;;;16.15;3.83;;;19.50;85.70;;;;;;5005017;28;20486;-74
2021/08/29 00:53:17;;;;;;;8.43;2.63;;;19.50;85.50;;;;;;5011163;28;20025;-74
2021/08/29 00:55:45;;;;;;;5.40;2.40;;;19.50;85.70;;;;;;5011883;28;20026;-74
2021/08/29 00:58:11;;;;;;;3.78;2.00;;;19.50;85.80;;;;;;5013338;28;20026;-75
2021/08/29 01:00:42;;;;;;;9.38;3.35;;;19.50;85.80;;;;;;5010701;28;20041;-75
2021/08/29 01:03:35;;;;;;;8.70;2.80;;;19.50;85.80;;;;;;5024763;28;20030;-76
2021/08/29 01:06:25;;;;;;;10.10;3.22;;;19.40;85.90;;;;;;4995383;28;20050;-76
2021/08/29 01:09:17;;;;;;;5.63;2.30;;;19.50;85.80;;;;;;5013195;28;20032;-75
2021/08/29 01:11:50;;;;;;;13.48;2.83;;;19.50;86.00;;;;;;5029139;28;20546;-74
2021/08/29 01:14:24;;;;;;;10.10;2.83;;;19.40;85.90;;;;;;5014247;28;20030;-75
2021/08/29 01:16:54;;;;;;;14.90;3.42;;;19.40;86.00;;;;;;5013177;28;20029;-75
2021/08/29 01:19:31;;;;;;;4.97;2.25;;;19.50;86.10;;;;;;5013576;28;20485;-75
2021/08/29 01:22:00;;;;;;;8.50;2.80;;;19.50;86.10;;;;;;5030084;28;20030;-75
2021/08/29 01:24:27;;;;;;;11.57;2.58;;;19.40;86.10;;;;;;5013828;28;20034;-75
2021/08/29 01:27:04;;;;;;;14.13;2.92;;;19.50;86.10;;;;;;5004900;28;20076;-74
2021/08/29 01:29:31;;;;;;;10.07;3.40;;;19.50;86.00;;;;;;5014023;28;20026;-75
2021/08/29 01:32:06;;;;;;;7.85;2.67;;;19.40;85.80;;;;;;5027451;28;20591;-75
2021/08/29 01:34:34;;;;;;;4.82;2.53;;;19.50;85.80;;;;;;5013481;28;20045;-75
2021/08/29 01:37:23;;;;;;;9.40;3.05;;;19.40;85.60;;;;;;4994624;28;20068;-74
2021/08/29 01:39:50;;;;;;;5.28;2.30;;;19.40;85.70;;;;;;5007766;28;20034;-75
2021/08/29 01:42:22;;;;;;;13.65;3.50;;;19.40;85.90;;;;;;5001540;28;20657;-75
2021/08/29 01:44:48;;;;;;;6.57;2.10;;;19.40;86.00;;;;;;5008933;28;20030;-74
2021/08/29 01:47:16;;;;;;;12.00;3.20;;;19.40;86.10;;;;;;5019624;28;20481;-75
2021/08/29 01:49:43;;;;;;;9.02;3.05;;;19.40;86.00;;;;;;5006697;28;20026;-75
2021/08/29 01:52:09;;;;;;;6.35;2.40;;;19.40;86.00;;;;;;5012062;28;20026;-75
2021/08/29 01:55:10;;;;;;;8.65;2.83;;;19.40;86.10;;;;;;4998430;28;20148;-75
2021/08/29 01:58:00;;;;;;;10.38;2.60;;;19.30;85.90;;;;;;5029455;28;20113;-75
2021/08/29 02:00:37;;;;;;;8.57;3.38;;;19.30;85.90;;;;;;5006157;28;20026;-75
2021/08/29 02:03:03;;;;;;;9.90;3.07;;;19.40;85.70;;;;;;5019535;28;20029;-74
2021/08/29 02:05:31;;;;;;;6.47;2.33;;;19.40;85.60;;;;;;5007097;28;20804;-75
2021/08/29 02:08:00;;;;;;;6.55;2.65;;;19.30;85.40;;;;;;5013358;28;20021;-75
2021/08/29 02:10:35;;;;;;;9.38;2.65;;;19.40;85.30;;;;;;5007062;28;20033;-75
2021/08/29 02:13:11;;;;;;;11.85;2.60;;;19.40;85.20;;;;;;5011673;28;20493;-75
2021/08/29 02:15:45;;;;;;;10.18;3.00;;;19.40;85.10;;;;;;5002414;28;20427;-75
2021/08/29 02:18:12;;;;;;;5.75;2.40;;;19.40;84.80;;;;;;5012950;28;20022;-75
2021/08/29 02:20:43;;;;;;;5.90;2.50;;;19.40;84.70;;;;;;5010370;28;20025;-75
2021/08/29 02:23:12;;;;;;;6.57;2.63;;;19.50;84.50;;;;;;5011249;28;20033;-75
2021/08/29 02:25:38;;;;;;;5.85;2.55;;;19.50;84.30;;;;;;5004555;28;20401;-75
2021/08/29 02:28:06;;;;;;;7.25;2.60;;;19.50;84.10;;;;;;5006442;28;20034;-75
2021/08/29 02:30:32;;;;;;;8.10;2.58;;;19.50;83.80;;;;;;5015863;28;20032;-75
2021/08/29 02:33:03;;;;;;;6.22;2.60;;;19.50;83.70;;;;;;5023320;28;20424;-75
2021/08/29 02:35:30;;;;;;;8.57;2.88;;;19.50;83.40;;;;;;5015996;28;20120;-75
2021/08/29 02:38:01;;;;;;;9.38;2.58;;;19.50;83.30;;;;;;5011405;28;20112;-75
2021/08/29 02:40:31;;;;;;;12.35;2.58;;;19.60;83.30;;;;;;5012674;28;20041;-75
2021/08/29 02:42:59;;;;;;;10.82;2.25;;;19.60;83.30;;;;;;5029054;28;20176;-75
2021/08/29 02:45:26;;;;;;;13.07;2.75;;;19.60;83.40;;;;;;5006508;28;20546;-75
2021/08/29 02:47:52;;;;;;;11.40;2.22;;;19.60;83.50;;;;;;5004640;28;20488;-75
2021/08/29 02:50:23;;;;;;;8.48;2.75;;;19.60;83.50;;;;;;5012489;28;20044;-75
2021/08/29 02:52:50;;;;;;;10.35;2.78;;;19.60;83.60;;;;;;5012414;28;20025;-75
2021/08/29 02:55:18;;;;;;;6.65;2.15;;;19.60;83.60;;;;;;5010726;28;20225;-75
2021/08/29 02:57:54;;;;;;;9.18;2.65;;;19.60;83.60;;;;;;5012824;28;20105;-75
2021/08/29 03:00:39;;;;;;;3.53;2.17;;;19.60;83.60;;;;;;5010517;28;20033;-75
2021/08/29 03:03:15;;;;;;;8.20;2.60;;;19.60;83.60;;;;;;5010800;28;20021;-75
2021/08/29 03:05:41;;;;;;;10.73;3.38;;;19.60;84.00;;;;;;5010761;28;20507;-75
2021/08/29 03:08:08;;;;;;;13.23;3.00;;;19.60;83.30;;;;;;5013434;28;20076;-75
2021/08/29 03:10:34;;;;;;;7.63;2.50;;;19.60;83.00;;;;;;5011103;28;20030;-74
2021/08/29 03:13:02;;;;;;;5.57;2.38;;;19.60;82.90;;;;;;5028687;28;20018;-75
2021/08/29 03:15:36;;;;;;;8.73;2.40;;;19.60;82.80;;;;;;5015891;28;20469;-75
2021/08/29 03:18:18;;;;;;;8.50;2.67;;;19.60;82.80;;;;;;5012587;28;20034;-75
2021/08/29 03:20:47;;;;;;;6.72;2.70;;;19.70;82.90;;;;;;5012404;28;20052;-75
2021/08/29 03:23:13;;;;;;;5.57;2.40;;;19.60;82.70;;;;;;5012649;28;20026;-75
2021/08/29 03:25:39;;;;;;;5.65;2.22;;;19.60;82.50;;;;;;4999263;28;20054;-75
2021/08/29 03:28:05;;;;;;;10.13;3.13;;;19.60;82.50;;;;;;5011846;28;20026;-75
2021/08/29 03:30:31;;;;;;;9.13;2.13;;;19.60;82.40;;;;;;5020462;28;20034;-75
2021/08/29 03:32:56;;;;;;;6.05;2.67;;;19.60;82.40;;;;;;5011890;28;20528;-75
2021/08/29 03:35:32;;;;;;;7.53;2.58;;;19.60;82.30;;;;;;5011517;28;20080;-75
2021/08/29 03:37:58;;;;;;;11.02;2.35;;;19.70;82.40;;;;;;5007138;28;20381;-75
2021/08/29 03:40:25;;;;;;;8.52;2.20;;;19.70;82.40;;;;;;5016734;28;20049;-75
2021/08/29 03:42:51;;;;;;;9.23;2.20;;;19.60;82.80;;;;;;5007755;28;20065;-75
2021/08/29 03:45:17;;;;;;;12.25;2.83;;;19.70;82.70;;;;;;5022660;28;20041;-75
2021/08/29 03:47:43;;;;;;;8.38;2.65;;;19.70;82.90;;;;;;5019081;28;20042;-75
2021/08/29 03:50:10;;;;;;;18.73;2.63;;;19.70;83.20;;;;;;5011575;28;20377;-75
2021/08/29 03:52:40;;;;;;;11.85;2.83;;;19.70;83.30;;;;;;5009515;28;20037;-75
2021/08/29 03:55:21;;;;;;;12.35;2.65;;;19.70;83.60;;;;;;4996355;28;20026;-75
2021/08/29 03:57:53;;;;;;;9.90;2.60;;;19.70;83.70;;;;;;5020247;28;20038;-75
2021/08/29 04:00:20;;;;;;;6.63;2.13;;;19.70;83.80;;;;;;5011052;28;20030;-75
2021/08/29 04:02:54;;;;;;;11.35;2.60;;;19.60;83.90;;;;;;5009633;28;20022;-75
2021/08/29 04:05:41;;;;;;;11.77;3.00;;;19.70;83.90;;;;;;5009047;28;20049;-75
2021/08/29 04:08:13;;;;;;;9.25;2.45;;;19.70;84.10;;;;;;5003777;28;20117;-75
2021/08/29 04:10:43;;;;;;;7.53;2.30;;;19.70;84.50;;;;;;5010195;28;20052;-75
2021/08/29 04:13:13;;;;;;;9.85;1.77;;;19.60;84.80;;;;;;5027358;28;20026;-75
2021/08/29 04:16:01;;;;;;;7.03;2.42;;;19.60;85.20;;;;;;5000384;28;20074;-75
2021/08/29 04:18:35;;;;;;;10.90;2.58;;;19.60;85.70;;;;;;5004847;28;20386;-75
2021/08/29 04:21:01;;;;;;;8.90;2.20;;;19.60;86.00;;;;;;5024733;28;20161;-75
2021/08/29 04:23:27;;;;;;;9.02;3.13;;;19.50;86.10;;;;;;5014688;28;20117;-75
2021/08/29 04:25:53;;;;;;;6.32;2.47;;;19.50;86.30;;;;;;5007059;28;20054;-75
2021/08/29 04:28:22;;;;;;;5.13;2.53;;;19.40;86.10;;;;;;5003718;28;20033;-75
2021/08/29 04:30:50;;;;;;;11.07;2.55;;;19.40;86.20;;;;;;5018912;28;20031;-75
2021/08/29 04:33:17;;;;;;;5.38;2.10;;;19.40;86.20;;;;;;5002805;28;20048;-75
2021/08/29 04:36:15;;;;;;;9.05;2.03;;;19.40;86.20;;;;;;5006471;28;20091;-75
2021/08/29 04:38:41;;;;;;;6.95;2.25;;;19.30;85.90;;;;;;5011957;28;20025;-75
2021/08/29 04:41:08;;;;;;;6.97;2.85;;;19.30;86.10;;;;;;5009733;28;20620;-75
2021/08/29 04:43:34;;;;;;;8.00;2.58;;;19.30;86.40;;;;;;5027241;28;20030;-75
2021/08/29 04:46:00;;;;;;;8.40;2.35;;;19.30;86.30;;;;;;5010460;28;20401;-75
2021/08/29 04:48:25;;;;;;;12.80;2.83;;;19.20;86.60;;;;;;5007950;28;20046;-75
2021/08/29 04:50:51;;;;;;;11.93;2.55;;;19.30;86.80;;;;;;5024673;28;20127;-75
2021/08/29 04:53:24;;;;;;;15.43;3.13;;;19.30;86.70;;;;;;5011016;28;20022;-75
2021/08/29 04:55:49;;;;;;;11.07;2.85;;;19.20;86.60;;;;;;5000377;28;20041;-75
2021/08/29 04:58:15;;;;;;;14.77;3.17;;;19.20;86.80;;;;;;4999564;28;20481;-75
2021/08/29 05:00:41;;;;;;;17.27;2.92;;;19.30;87.20;;;;;;5010764;28;20041;-75
2021/08/29 05:03:06;;;;;;;10.20;2.25;;;19.30;87.00;;;;;;5026731;28;20022;-75
2021/08/29 05:05:33;;;;;;;9.90;2.67;;;19.30;86.90;;;;;;5015862;28;20038;-75
2021/08/29 05:07:59;;;;;;;10.25;2.75;;;19.30;87.10;;;;;;5006501;28;20581;-75
2021/08/29 05:10:25;;;;;;;11.98;2.35;;;19.30;87.10;;;;;;5023802;28;20042;-75
2021/08/29 05:13:04;;;;;;;8.80;2.53;;;19.30;87.20;;;;;;5014756;28;20040;-75
2021/08/29 05:15:30;;;;;;;5.03;2.42;;;19.30;87.20;;;;;;5004468;28;20053;-75
2021/08/29 05:17:56;;;;;;;8.52;2.80;;;19.30;87.50;;;;;;5026661;28;20485;-76
2021/08/29 05:20:24;;;;;;;14.88;2.50;;;19.20;87.60;;;;;;5010622;28;20481;-75
2021/08/29 05:23:08;;;;;;;10.75;2.70;;;19.20;87.60;;;;;;5009427;28;20048;-77
2021/08/29 05:25:54;;;;;;;6.72;2.22;;;19.20;87.50;;;;;;5003448;28;20081;-76
2021/08/29 05:28:20;;;;;;;5.53;2.30;;;19.20;87.50;;;;;;4998292;28;20407;-76
2021/08/29 05:30:47;;;;;;;12.68;2.50;;;19.20;87.70;;;;;;5015357;28;20026;-76
2021/08/29 05:33:14;;;;;;;5.10;1.52;;;19.20;87.80;;;;;;5009886;28;20109;-76
2021/08/29 05:35:41;;;;;;;9.70;2.55;;;19.20;88.10;;;;;;5013621;28;20034;-76
2021/08/29 05:38:06;;;;;;;14.70;2.40;;;19.20;88.30;;;;;;5010561;28;20485;-76
2021/08/29 05:40:51;;;;;;;13.60;2.33;;;19.20;88.40;;;;;;5003840;28;20046;-75
2021/08/29 05:43:35;;;;;;;10.10;1.88;;;19.10;89.10;;;;;;4998748;28;20061;-77
2021/08/29 05:46:01;;;;;;;7.30;2.53;;;19.20;88.40;;;;;;5023799;28;20129;-77
2021/08/29 05:48:26;;;;;;;10.50;2.63;;;19.10;88.40;;;;;;5011373;28;20116;-75
2021/08/29 05:50:52;;;;;;;12.05;2.78;;;19.10;88.70;;;;;;5001159;28;20034;-75
2021/08/29 05:53:18;;;;;;;10.68;2.40;;;19.10;88.70;;;;;;5024981;28;20029;-75
2021/08/29 05:55:45;;;;;;;13.82;2.53;;;19.10;88.80;;;;;;5009233;28;20026;-75
2021/08/29 05:58:10;;;;;;;13.63;4.03;;;19.10;89.00;;;;;;5006020;28;20102;-75
2021/08/29 06:00:41;;;;;;;18.60;3.55;;;19.10;88.90;;;;;;5007484;28;20389;-75
2021/08/29 06:03:07;;;;;;;8.90;2.30;;;19.10;89.10;;;;;;5009889;28;20050;-75
2021/08/29 06:05:32;;;;;;;9.88;3.00;;;19.10;88.70;;;;;;5014887;28;20496;-75
2021/08/29 06:08:07;;;;;;;6.88;2.08;;;19.10;88.90;;;;;;5011468;28;20030;-75
2021/08/29 06:10:33;;;;;;;10.30;2.40;;;19.10;88.80;;;;;;5021601;28;20389;-75
2021/08/29 06:12:59;;;;;;;12.63;2.20;;;19.00;88.80;;;;;;4997523;28;20022;-76
2021/08/29 06:15:27;;;;;;;13.13;2.80;;;19.00;88.70;;;;;;5028840;28;20028;-75
2021/08/29 06:17:52;;;;;;;16.40;2.88;;;19.00;88.90;;;;;;5029321;28;20392;-75
2021/08/29 06:20:18;;;;;;;11.25;2.72;;;19.10;89.30;;;;;;5004719;28;20022;-75
2021/08/29 06:22:45;;;;;;;13.32;3.08;;;19.00;89.40;;;;;;5000938;28;20425;-75
2021/08/29 06:25:29;;;;;;;9.48;2.58;;;19.10;89.60;;;;;;5010436;28;20052;-75
2021/08/29 06:28:13;;;;;;;8.70;2.70;;;19.00;89.40;;;;;;5009167;28;20072;-75
2021/08/29 06:31:01;;;;;;;15.77;2.90;;;19.10;89.20;;;;;;4976737;28;20140;-75
2021/08/29 06:34:05;;;;;;;11.50;3.00;;;19.10;89.20;;;;;;5005125;28;20084;-75
2021/08/29 06:36:34;;;;;;;11.57;2.90;;;19.00;89.20;;;;;;5022361;28;20034;-76
2021/08/29 06:39:01;;;;;;;6.32;2.40;;;19.00;89.30;;;;;;5019029;28;20110;-75
2021/08/29 06:41:28;;;;;;;15.68;3.45;;;19.00;89.40;;;;;;5000398;28;20081;-75
2021/08/29 06:43:56;;;;;;;11.13;2.92;;;19.00;89.50;;;;;;5004715;28;20109;-75
2021/08/29 06:46:40;;;;;;;9.55;3.65;;;19.00;89.60;;;;;;5002935;28;20064;-76
2021/08/29 06:49:24;;;;;;;10.18;2.67;;;19.00;89.70;;;;;;5011981;28;20076;-75
2021/08/29 06:52:10;;;;;;;14.90;3.55;;;19.00;89.70;;;;;;5004275;28;20088;-77
2021/08/29 06:54:54;;;;;;;11.93;3.78;;;19.00;89.80;;;;;;4998742;28;20037;-77
2021/08/29 06:57:38;;;;;;;10.55;3.20;;;19.00;89.90;;;;;;5000541;28;20096;-76
2021/08/29 07:00:04;;;;;;;23.10;3.55;;;19.00;90.20;;;;;;5008571;28;20477;-77
2021/08/29 07:02:31;;;;;;;14.32;4.10;;;18.90;90.40;;;;;;5009724;28;20113;-76
2021/08/29 07:04:56;;;;;;;16.88;4.15;;;18.90;90.60;;;;;;5003110;28;20049;-76
2021/08/29 07:07:22;;;;;;;15.00;3.58;;;19.00;90.70;;;;;;5011930;28;20081;-76
2021/08/29 07:10:07;;;;;;;8.65;3.70;;;18.90;90.80;;;;;;5000302;28;20036;-77
2021/08/29 07:12:49;;;;;;;7.35;2.72;;;18.90;90.80;;;;;;5023792;28;20084;-76
2021/08/29 07:15:24;;;;;;;9.32;3.03;;;19.00;90.70;;;;;;4999104;28;20180;-76
2021/08/29 07:17:52;;;;;;;7.45;2.72;;;18.90;90.60;;;;;;5016607;28;20042;-76
2021/08/29 07:20:36;;;;;;;6.45;2.55;;;18.90;90.60;;;;;;5007594;28;20049;-75
2021/08/29 07:23:31;;;;;;;8.32;2.80;;;18.90;90.60;;;;;;4997350;28;20045;-75
2021/08/29 07:26:15;;;;;;;5.18;1.98;;;18.90;90.60;;;;;;5004066;28;20064;-76
2021/08/29 07:29:00;;;;;;;9.35;2.50;;;18.90;90.60;;;;;;5005211;28;20068;-76
2021/08/29 07:31:44;;;;;;;5.18;2.45;;;18.90;90.60;;;;;;5010096;28;20084;-76
2021/08/29 07:34:09;;;;;;;8.02;2.58;;;18.80;90.70;;;;;;5007140;28;20029;-77
2021/08/29 07:36:58;;;;;;;9.40;2.35;;;18.80;90.70;;;;;;5007200;28;20049;-77
2021/08/29 07:39:24;;;;;;;7.55;2.20;;;18.90;90.70;;;;;;5012138;28;20061;-77
2021/08/29 07:41:50;;;;;;;5.45;2.28;;;18.90;90.80;;;;;;5005339;28;20053;-77
2021/08/29 07:44:21;;;;;;;6.72;2.03;;;18.90;90.80;;;;;;5007910;28;20042;-75
2021/08/29 07:46:47;;;;;;;5.05;2.70;;;18.90;90.80;;;;;;5007774;28;20131;-75
2021/08/29 07:49:13;;;;;;;10.95;2.72;;;18.90;90.90;;;;;;5026061;28;20113;-76
2021/08/29 07:51:38;;;;;;;11.10;2.22;;;19.00;90.90;;;;;;5022737;28;20035;-75
2021/08/29 07:54:27;;;;;;;13.25;3.15;;;19.00;91.00;;;;;;4990200;28;20677;-75
2021/08/29 07:57:12;;;;;;;6.00;2.50;;;19.00;90.90;;;;;;5007690;28;20040;-78
2021/08/29 07:59:38;;;;;;;7.43;2.38;;;19.10;91.00;;;;;;5007312;28;20030;-75
2021/08/29 08:02:04;;;;;;;9.52;2.10;;;19.10;91.00;;;;;;5005724;28;20025;-77
2021/08/29 08:04:50;;;;;;;4.70;2.30;;;19.00;90.90;;;;;;5005523;28;20038;-75
2021/08/29 08:07:47;;;;;;;12.30;2.83;;;19.10;90.90;;;;;;4999969;28;20821;-76
2021/08/29 08:10:32;;;;;;;3.95;2.22;;;19.10;90.80;;;;;;5007541;28;20029;-75
2021/08/29 08:13:24;;;;;;;9.60;2.63;;;19.10;90.80;;;;;;5002924;28;20620;-75
2021/08/29 08:15:50;;;;;;;6.78;2.10;;;19.10;90.70;;;;;;5003945;28;20029;-75
2021/08/29 08:18:16;;;;;;;6.32;2.20;;;19.10;90.60;;;;;;4999233;28;20022;-74
2021/08/29 08:20:42;;;;;;;7.40;2.33;;;19.10;90.60;;;;;;5005820;28;20030;-75
2021/08/29 08:23:43;;;;;;;6.15;2.15;;;19.10;90.50;;;;;;5002774;28;20087;-74
2021/08/29 08:26:29;;;;;;;15.38;2.35;;;19.10;90.60;;;;;;4983085;28;20551;-76
2021/08/29 08:29:13;;;;;;;5.55;2.40;;;19.10;90.70;;;;;;5005360;28;20520;-75
2021/08/29 08:32:17;;;;;;;9.10;2.60;;;19.10;90.80;;;;;;4981740;28;20049;-74
2021/08/29 08:35:00;;;;;;;9.30;2.60;;;19.10;90.80;;;;;;4982294;28;20027;-75
2021/08/29 08:37:44;;;;;;;6.57;2.65;;;19.10;90.90;;;;;;4999489;28;20041;-74
2021/08/29 08:40:22;;;;;;;8.10;2.30;;;19.10;91.30;;;;;;5001554;28;20129;-76
2021/08/29 08:42:49;;;;;;;5.57;2.03;;;19.10;90.90;;;;;;5005796;28;20029;-78
2021/08/29 08:45:35;;;;;;;6.38;2.00;;;19.20;90.80;;;;;;5002921;28;20045;-74
2021/08/29 08:48:20;;;;;;;10.85;2.10;;;19.20;90.80;;;;;;5001758;28;20091;-74
2021/08/29 08:51:10;;;;;;;5.35;2.00;;;19.20;91.00;;;;;;5002289;28;20061;-74
2021/08/29 08:53:56;;;;;;;7.18;1.98;;;19.20;90.90;;;;;;5009249;28;20032;-74
2021/08/29 08:56:40;;;;;;;3.10;1.63;;;19.20;90.80;;;;;;5007518;28;20037;-74
2021/08/29 08:59:26;;;;;;;8.32;2.05;;;19.10;90.70;;;;;;4983056;28;20065;-74
2021/08/29 09:01:52;;;;;;;4.72;1.95;;;19.20;90.80;;;;;;4999770;28;20073;-75
2021/08/29 09:04:41;;;;;;;8.57;2.25;;;19.20;90.60;;;;;;4989646;28;20037;-75
2021/08/29 09:07:07;;;;;;;7.28;2.20;;;19.20;90.70;;;;;;5024894;28;20042;-74
2021/08/29 09:09:34;;;;;;;4.85;1.90;;;19.20;90.70;;;;;;5024361;28;20033;-74
2021/08/29 09:12:00;;;;;;;8.77;2.70;;;19.20;90.80;;;;;;5008317;28;20037;-76
2021/08/29 09:14:38;;;;;;;4.30;1.60;;;19.20;90.80;;;;;;5011516;28;20112;-75
2021/08/29 09:17:24;;;;;;;6.95;1.88;;;19.20;90.80;;;;;;5012943;28;20018;-76
2021/08/29 09:19:50;;;;;;;11.45;2.00;;;19.20;90.80;;;;;;5024174;28;20113;-76
2021/08/29 09:22:25;;;;;;;4.60;2.65;;;19.30;90.80;;;;;;5013866;28;20026;-76
2021/08/29 09:24:53;;;;;;;9.02;2.08;;;19.30;90.80;;;;;;5019704;28;20030;-75
2021/08/29 09:27:39;;;;;;;;;;;19.30;90.80;;;;;;5011436;28;20108;-92
2021/08/29 09:30:17;;;;;;;5.32;1.90;;;19.30;90.70;;;;;;5020176;28;20296;-86
2021/08/29 09:32:50;;;;;;;7.43;2.17;;;19.30;90.70;;;;;;5029601;28;20057;-75
2021/08/29 09:35:16;;;;;;;7.38;1.95;;;19.30;90.70;;;;;;4998102;28;20036;-81
2021/08/29 09:38:10;;;;;;;6.10;2.33;;;19.30;90.70;;;;;;5011485;28;20064;-78
2021/08/29 09:40:55;;;;;;;4.78;2.35;;;19.30;90.70;;;;;;5015021;28;20084;-76
2021/08/29 09:43:41;;;;;;;11.05;2.65;;;19.30;90.90;;;;;;5002371;28;20037;-77
2021/08/29 09:46:07;;;;;;;3.88;1.90;;;19.30;90.90;;;;;;5001412;28;20068;-80
2021/08/29 09:48:56;;;;;;;7.07;2.13;;;19.30;90.80;;;;;;4996989;28;20511;-87
2021/08/29 09:51:46;;;;;;;5.15;2.67;;;19.40;90.90;;;;;;5003611;28;20053;-78
2021/08/29 09:54:37;;;;;;;5.03;2.35;;;19.40;91.00;;;;;;5020834;28;20111;-77
2021/08/29 09:57:21;;;;;;;8.40;2.65;;;19.30;90.90;;;;;;5014353;28;20042;-87
2021/08/29 10:00:10;;;;;;;6.93;2.45;;;19.40;91.00;;;;;;5031094;28;20359;-76
2021/08/29 10:02:49;;;;;;;5.38;2.78;;;19.40;91.10;;;;;;5004118;28;20413;-75
2021/08/29 10:05:17;;;;;;;5.68;2.45;;;19.40;91.10;;;;;;5027878;28;20038;-75
2021/08/29 10:08:08;;;;;;;7.63;2.17;;;19.40;91.00;;;;;;5025222;28;20037;-77
2021/08/29 10:11:01;;;;;;;7.28;2.30;;;19.40;91.00;;;;;;5003173;28;20041;-77
2021/08/29 10:13:27;;;;;;;6.78;2.42;;;19.40;90.90;;;;;;5000937;28;20381;-77
2021/08/29 10:16:10;;;;;;;7.10;2.35;;;19.50;91.00;;;;;;5018938;28;20026;-76
2021/08/29 10:18:56;;;;;;;7.70;2.33;;;19.50;91.00;;;;;;5005019;28;20041;-77
2021/08/29 10:21:41;;;;;;;6.53;2.10;;;19.50;91.00;;;;;;4997722;28;20088;-78
2021/08/29 10:24:10;;;;;;;3.80;2.28;;;19.40;90.90;;;;;;5000468;28;20046;-78
2021/08/29 10:26:40;;;;;;;6.72;2.55;;;19.40;90.90;;;;;;4998511;28;20508;-82
2021/08/29 10:29:43;;;;;;;4.90;2.60;;;19.50;91.00;;;;;;4966113;28;20512;-77
2021/08/29 10:32:35;;;;;;;8.05;2.90;;;19.50;91.10;;;;;;5005108;28;20075;-77
2021/08/29 10:35:20;;;;;;;7.07;2.60;;;19.50;91.20;;;;;;5009255;28;20179;-85
2021/08/29 10:37:49;;;;;;;9.27;2.72;;;19.50;91.30;;;;;;5010070;28;20068;-77
2021/08/29 10:40:33;;;;;;;9.10;3.17;;;19.50;91.30;;;;;;5003332;28;20087;-76
2021/08/29 10:43:10;;;;;;;6.72;3.55;;;19.50;91.30;;;;;;5022082;28;20466;-77
2021/08/29 10:45:56;;;;;;;6.72;2.80;;;19.50;91.40;;;;;;5008581;28;20123;-78
2021/08/29 10:48:43;;;;;;;8.10;3.03;;;19.50;91.50;;;;;;5006642;28;20437;-81
2021/08/29 10:51:25;;;;;;;8.25;3.00;;;19.50;91.60;;;;;;5007522;28;20120;-80
2021/08/29 10:53:56;;;;;;;10.50;2.92;;;19.50;91.70;;;;;;5008632;28;20023;-80
2021/08/29 10:56:29;;;;;;;6.05;2.75;;;19.50;91.70;;;;;;5008015;28;20026;-84
2021/08/29 10:59:06;;;;;;;8.07;2.97;;;19.50;91.80;;;;;;5004865;28;20023;-82
2021/08/29 11:01:35;;;;;;;7.68;2.85;;;19.60;91.80;;;;;;4995816;28;20065;-77
2021/08/29 11:04:27;;;;;;;6.55;2.53;;;19.60;91.80;;;;;;5008202;28;20409;-76
2021/08/29 11:07:06;;;;;;;9.55;2.60;;;19.60;91.70;;;;;;5019627;28;20053;-76
2021/08/29 11:09:32;;;;;;;8.07;3.05;;;19.60;91.70;;;;;;5023997;28;20401;-77
2021/08/29 11:12:01;;;;;;;6.57;3.40;;;19.60;91.80;;;;;;5023123;28;20080;-83
2021/08/29 11:14:37;;;;;;;6.90;3.08;;;19.60;91.80;;;;;;5000732;28;20033;-77
2021/08/29 11:17:13;;;;;;;7.97;3.10;;;19.60;91.80;;;;;;5022471;28;20038;-85
2021/08/29 11:20:03;;;;;;;7.45;2.80;;;19.70;91.90;;;;;;5021385;28;20473;-82
2021/08/29 11:22:44;;;;;;;6.65;2.97;;;19.70;91.80;;;;;;5002215;28;20064;-80
2021/08/29 11:25:33;;;;;;;7.40;2.70;;;19.60;91.80;;;;;;4991461;28;20100;-80
2021/08/29 11:28:29;;;;;;;8.82;2.58;;;19.60;91.70;;;;;;5001526;28;20040;-77
2021/08/29 11:31:00;;;;;;;7.50;2.95;;;19.70;91.70;;;;;;5011657;28;20095;-77
2021/08/29 11:33:36;;;;;;;8.88;3.17;;;19.70;91.60;;;;;;5020769;28;20034;-76
2021/08/29 11:36:27;;;;;;;10.65;3.30;;;19.60;91.60;;;;;;5021476;28;20954;-75
2021/08/29 11:39:02;;;;;;;10.23;3.08;;;19.70;91.60;;;;;;5009093;28;20061;-75
2021/08/29 11:41:31;;;;;;;10.23;2.92;;;19.70;91.60;;;;;;5005941;28;20473;-75
2021/08/29 11:43:57;;;;;;;7.30;3.20;;;19.70;91.70;;;;;;5024504;28;20079;-75
2021/08/29 11:46:39;;;;;;;9.00;3.10;;;19.70;91.70;;;;;;5008894;28;20382;-76
2021/08/29 11:49:14;;;;;;;11.30;3.83;;;19.70;91.80;;;;;;5009960;28;20028;-74
2021/08/29 11:51:44;;;;;;;6.22;2.80;;;19.70;91.50;;;;;;5005284;28;20436;-76
2021/08/29 11:54:13;;;;;;;8.68;3.20;;;19.70;91.40;;;;;;5013816;28;20076;-76
2021/08/29 11:56:45;;;;;;;7.03;3.05;;;19.70;91.50;;;;;;5021449;28;20036;-76
2021/08/29 11:59:24;;;;;;;9.15;3.17;;;19.70;91.40;;;;;;5016598;28;20125;-76
2021/08/29 12:01:54;;;;;;;8.23;3.05;;;19.70;91.50;;;;;;5003298;28;20133;-75
2021/08/29 12:04:24;;;;;;;8.73;3.10;;;19.80;91.40;;;;;;5024483;28;20576;-76
2021/08/29 12:07:09;;;;;;;10.57;3.70;;;19.80;91.50;;;;;;5008465;28;20088;-76
2021/08/29 12:09:54;;;;;;;14.40;3.38;;;19.80;91.50;;;;;;5009624;28;20057;-77
2021/08/29 12:12:56;;;;;;;8.77;3.58;;;19.80;91.60;;;;;;4950355;28;20039;-77
2021/08/29 12:15:40;;;;;;;7.85;3.50;;;19.80;91.60;;;;;;4991464;28;20040;-77
2021/08/29 12:18:36;;;;;;;11.98;3.40;;;19.80;91.60;;;;;;4999921;28;20088;-78
2021/08/29 12:21:05;;;;;;;8.80;2.78;;;19.80;91.60;;;;;;5003567;28;20030;-81
2021/08/29 12:23:55;;;;;;;12.98;3.42;;;19.80;91.40;;;;;;5000155;28;20041;-82
2021/08/29 12:26:24;;;;;;;8.65;3.80;;;19.90;91.50;;;;;;5002435;28;20038;-82
2021/08/29 12:29:09;;;;;;;10.95;4.65;;;19.90;91.60;;;;;;5003602;28;20018;-80
2021/08/29 12:31:39;;;;;;;9.75;4.18;;;19.90;91.70;;;;;;5021475;28;20624;-75
2021/08/29 12:34:07;;;;;;;10.00;3.55;;;19.90;91.70;;;;;;5015708;28;20160;-76
2021/08/29 12:36:34;;;;;;;6.57;3.35;;;19.90;91.60;;;;;;5025403;28;20556;-76
2021/08/29 12:39:01;;;;;;;12.00;4.55;;;20.00;91.50;;;;;;5001472;28;20040;-75
2021/08/29 12:41:27;;;;;;;9.13;3.25;;;19.90;91.60;;;;;;5005081;28;20141;-75
2021/08/29 12:44:04;;;;;;;6.85;2.72;;;19.90;91.50;;;;;;5013541;28;20675;-75
2021/08/29 12:46:30;;;;;;;7.25;3.17;;;20.00;91.50;;;;;;5004697;28;20162;-78
2021/08/29 12:48:56;;;;;;;8.65;3.58;;;19.90;91.60;;;;;;5003854;28;20053;-78
2021/08/29 12:51:24;;;;;;;8.43;3.92;;;20.00;91.60;;;;;;5006270;28;20037;-77
2021/08/29 12:53:55;;;;;;;12.45;4.68;;;20.00;91.50;;;;;;5001119;28;20036;-77
2021/08/29 12:56:21;;;;;;;14.18;4.00;;;20.00;91.50;;;;;;5005972;28;20076;-76
2021/08/29 12:58:48;;;;;;;10.82;3.58;;;20.10;91.40;;;;;;5000525;28;20034;-76
2021/08/29 13:01:14;;;;;;;11.38;5.05;;;20.10;91.50;;;;;;4997371;28;20026;-76
2021/08/29 13:03:53;;;;;;;9.10;4.03;;;20.10;91.50;;;;;;5001658;28;20030;-75
2021/08/29 13:06:21;;;;;;;7.75;3.75;;;20.10;91.40;;;;;;5010143;28;20533;-76
2021/08/29 13:08:49;;;;;;;8.30;3.45;;;20.10;91.30;;;;;;5006203;28;20354;-75
2021/08/29 13:11:20;;;;;;;10.48;3.95;;;20.20;91.40;;;;;;5010245;28;20045;-75
2021/08/29 13:13:57;;;;;;;8.77;3.83;;;20.10;91.40;;;;;;5003081;28;20022;-75
2021/08/29 13:16:37;;;;;;;8.50;3.72;;;20.10;91.40;;;;;;5005393;28;20489;-76
2021/08/29 13:19:03;;;;;;;12.43;3.67;;;20.20;91.50;;;;;;5004270;28;20034;-76